Lincoln Park, NJ

08:32 PM EST on Xaneiro 19, 2017 (GMT -0500)
Broad Acres | | Change Station

Elev 175 ft 40.93 °N, 74.29 °W | Updated 14 seconds ago

Partly Cloudy
Anubrado
32.7 °F
Feels Like 33 °F
N
0.0
Vento Variable Vento from Norte
Gusts 0.0 mph

Hoxe
High -- | Low -- °F
--% Chance of Precip.
Yesterday
High -- | Low -- °F
Precip. -- pol
Presión 30.08 pol
Visibilidade 10.0 Millas
Nubes Few 3500 ft
Vento Xeado 33 °F
Nivel de Rosada 30 °F
Humidade 90%
Rainfall 0.00 pol
Fondo da neve Not available.
7:17 AM 4:58 PM
Waning Gibbous, 49% visible
METAR KCDW 200053Z AUTO 00000KT 10SM FEW035 02/M01 A3006 RMK AO2 SLP185 T00171006 TSNO
Presión 30.08 pol
Visibilidade 10.0 Millas
Nubes Few 3500 ft
Vento Xeado 33 °F
Nivel de Rosada 30 °F
Humidade 90%
Rainfall 0.00 pol
Fondo da neve Not available.
7:17 AM 4:58 PM
Waning Gibbous, 49% visible
METAR KCDW 200053Z AUTO 00000KT 10SM FEW035 02/M01 A3006 RMK AO2 SLP185 T00171006 TSNO

Get Your Daily Forecast Email!

Thanks for signing up!

Be on the lookout for a verification email in your inbox.

You'll start receiving the daily forecast at 8 AM.

×

10-Day Weather Forecast

Almanac

Astronomía

Jan. 19, 2017 Rise Set
Tempo actual
Crepúsculo civil
Crepúsculo náutico
Crepúsculo astronómico
Lúa
Lonxitude da luz visíbel
Length of Day
Tomorrow will be .
, % of the Moon is Illuminated

Today's Extremes

State Highs State Lows

Community

WunderPhotos

Upload Photos

1,962,540 photos uploaded!

WunderBlog® & News

Nearby

Air Quality

  Air Quality AQ Index Pollutant
Not available.

Snow Depth

Station Depth Elevation

Earthquake Activity

Cidade Distance Mag. Time & Date
Minimum magnitude displayed is 2.5.

Coastal Water Temperatures

Lugar Temperatura

Stations

Nearby Weather Stations

Station Location Temp Vento Xeado Nivel de Rosada Humidade Vento Precip. Elev Actualización Type
                   

Watches & Warnings

There are currently no watches in effect.